createdAt,value
2018-09-30T00:00:20.239Z,22.47
2018-09-30T00:02:56.031Z,18.80
2018-09-30T00:05:31.904Z,21.47
2018-09-30T00:08:07.767Z,22.60
2018-09-30T00:10:43.758Z,25.30
2018-09-30T00:13:19.557Z,16.83
2018-09-30T00:15:55.420Z,18.20
2018-09-30T00:18:31.624Z,19.47
2018-09-30T00:21:07.981Z,19.10
2018-09-30T00:25:52.237Z,17.13
2018-09-30T00:28:28.212Z,16.83
2018-09-30T00:31:04.568Z,16.27
2018-09-30T00:33:45.392Z,15.80
2018-09-30T00:36:21.419Z,27.03
2018-09-30T00:38:57.596Z,18.60
2018-09-30T00:41:33.397Z,20.03
2018-09-30T00:44:09.279Z,19.60
2018-09-30T00:46:45.481Z,25.67
2018-09-30T00:49:21.291Z,26.43
2018-09-30T00:51:57.234Z,22.77
2018-09-30T00:54:33.293Z,25.40
2018-09-30T00:57:09.227Z,27.60
2018-09-30T00:59:45.184Z,26.10
2018-09-30T01:02:21.070Z,27.10
2018-09-30T01:04:56.943Z,22.60
2018-09-30T01:07:33.216Z,24.47
2018-09-30T01:10:09.201Z,30.93
2018-09-30T01:12:47.574Z,31.53
2018-09-30T01:15:23.436Z,27.87
2018-09-30T01:17:59.328Z,31.10
2018-09-30T01:20:35.243Z,29.63
2018-09-30T01:23:11.028Z,32.30
2018-09-30T01:25:46.907Z,31.27
2018-09-30T01:28:22.568Z,31.93
2018-09-30T01:30:58.429Z,29.73
2018-09-30T01:33:34.752Z,27.07
2018-09-30T01:36:10.580Z,29.97
2018-09-30T01:38:46.855Z,29.17
2018-09-30T01:41:22.734Z,22.67
2018-09-30T01:43:59.101Z,24.70
2018-09-30T01:46:35.132Z,22.13
2018-09-30T01:49:11.100Z,23.50
2018-09-30T01:51:56.644Z,25.77
2018-09-30T01:54:32.561Z,21.00
2018-09-30T01:57:08.599Z,25.13
2018-09-30T01:59:44.405Z,21.60
2018-09-30T02:02:20.341Z,25.33
2018-09-30T02:04:56.118Z,22.83
2018-09-30T02:07:32.036Z,25.73
2018-09-30T02:10:07.851Z,27.00
2018-09-30T02:12:43.739Z,24.47
2018-09-30T02:15:19.589Z,28.97
2018-09-30T02:17:55.408Z,27.27
2018-09-30T02:20:31.167Z,28.63
2018-09-30T02:23:07.063Z,28.80
2018-09-30T02:25:45.458Z,31.97
2018-09-30T02:28:22.096Z,27.40
2018-09-30T02:30:58.592Z,24.63
2018-09-30T02:33:34.701Z,26.67
2018-09-30T02:36:10.647Z,26.77
2018-09-30T02:38:46.536Z,23.77
2018-09-30T02:41:22.476Z,29.87
2018-09-30T02:43:58.791Z,28.60
2018-09-30T02:46:34.725Z,29.87
2018-09-30T02:49:10.723Z,26.13
2018-09-30T02:51:46.658Z,35.87
2018-09-30T02:54:22.533Z,35.47
2018-09-30T02:56:58.332Z,30.97
2018-09-30T02:59:34.307Z,28.30
2018-09-30T03:02:10.225Z,29.83
2018-09-30T03:04:46.106Z,32.40
2018-09-30T03:07:27.007Z,33.23
2018-09-30T03:10:02.860Z,33.73
2018-09-30T03:12:38.676Z,28.07
2018-09-30T03:15:14.560Z,31.00
2018-09-30T03:17:50.378Z,33.87
2018-09-30T03:20:26.197Z,39.53
2018-09-30T03:23:02.012Z,38.37
2018-09-30T03:25:37.924Z,31.20
2018-09-30T03:28:13.720Z,27.37
2018-09-30T03:30:50.248Z,32.10
2018-09-30T03:33:26.182Z,27.93
2018-09-30T03:36:02.115Z,30.63
2018-09-30T03:38:38.032Z,37.30
2018-09-30T03:41:14.080Z,23.40
2018-09-30T03:43:50.548Z,26.63
2018-09-30T03:46:26.873Z,27.40
2018-09-30T03:49:02.670Z,20.23
2018-09-30T03:51:38.660Z,22.40
2018-09-30T03:54:14.460Z,31.33
2018-09-30T03:56:50.449Z,27.97
2018-09-30T03:59:26.308Z,32.57
2018-09-30T04:02:02.247Z,35.90
2018-09-30T04:04:38.184Z,37.47
2018-09-30T04:07:14.057Z,36.97
2018-09-30T04:09:49.914Z,38.80
2018-09-30T04:12:26.093Z,28.73
2018-09-30T04:15:01.937Z,35.17
2018-09-30T04:17:37.813Z,28.43
2018-09-30T04:20:13.620Z,34.43
2018-09-30T04:22:49.524Z,36.80
2018-09-30T04:25:25.467Z,39.93
2018-09-30T04:28:01.356Z,41.67
2018-09-30T04:30:37.176Z,44.93
2018-09-30T04:33:13.178Z,48.63
2018-09-30T04:35:49.177Z,54.57
2018-09-30T04:38:25.125Z,107.40
2018-09-30T04:41:01.021Z,179.77
2018-09-30T04:43:37.672Z,66.73
2018-09-30T04:46:13.447Z,75.60
2018-09-30T04:48:49.373Z,58.97
2018-09-30T04:51:25.333Z,44.80
2018-09-30T04:54:01.177Z,51.10
2018-09-30T04:56:36.973Z,65.03
2018-09-30T04:59:13.256Z,103.93
2018-09-30T05:01:49.164Z,62.77
2018-09-30T05:04:25.186Z,64.63
2018-09-30T05:07:01.043Z,61.77
2018-09-30T05:09:36.910Z,44.73
2018-09-30T05:12:12.697Z,45.90
2018-09-30T05:14:49.209Z,42.07
2018-09-30T05:17:25.027Z,42.27
2018-09-30T05:20:13.038Z,40.97
2018-09-30T05:22:49.240Z,44.43
2018-09-30T05:25:25.198Z,252.03
2018-09-30T05:28:01.063Z,77.80
2018-09-30T05:30:36.917Z,64.83
2018-09-30T05:33:12.747Z,52.73
2018-09-30T05:35:48.631Z,56.43
2018-09-30T05:38:24.680Z,51.97
2018-09-30T05:41:00.676Z,172.43
2018-09-30T05:43:36.531Z,423.73
2018-09-30T05:46:12.516Z,470.23
2018-09-30T05:48:48.325Z,413.23
2018-09-30T05:51:24.232Z,201.33
2018-09-30T05:54:00.014Z,94.53
2018-09-30T05:56:36.020Z,66.23
2018-09-30T05:59:11.911Z,60.87
2018-09-30T06:01:47.749Z,61.60
2018-09-30T06:04:23.550Z,67.00
2018-09-30T06:06:59.573Z,107.10
2018-09-30T06:09:35.589Z,116.03
2018-09-30T06:12:11.756Z,68.50
2018-09-30T06:14:47.761Z,113.97
2018-09-30T06:17:23.633Z,151.87
2018-09-30T06:21:27.368Z,188.57
2018-09-30T06:24:03.315Z,150.93
2018-09-30T06:26:40.302Z,129.67
2018-09-30T06:29:16.242Z,123.00
2018-09-30T06:31:52.258Z,136.50
2018-09-30T06:34:28.349Z,157.80
2018-09-30T06:37:04.223Z,135.83
2018-09-30T06:39:40.169Z,64.03
2018-09-30T06:42:16.149Z,61.93
2018-09-30T06:44:52.005Z,50.07
2018-09-30T06:47:28.156Z,62.77
2018-09-30T06:50:04.206Z,56.83
2018-09-30T06:52:40.047Z,63.93
2018-09-30T06:55:15.991Z,59.90
2018-09-30T06:57:51.779Z,59.70
2018-09-30T07:00:27.732Z,78.33
2018-09-30T07:03:03.555Z,76.30
2018-09-30T07:05:39.377Z,70.37
2018-09-30T07:08:15.457Z,63.90
2018-09-30T07:10:51.466Z,54.73
2018-09-30T07:13:27.546Z,43.97
2018-09-30T07:16:03.399Z,51.60
2018-09-30T07:18:39.213Z,65.63
2018-09-30T07:21:15.063Z,64.43
2018-09-30T07:23:51.329Z,41.63
2018-09-30T07:33:47.438Z,22.37
2018-09-30T07:36:23.508Z,24.70
2018-09-30T07:38:59.360Z,19.83
2018-09-30T07:41:35.182Z,20.10
2018-09-30T07:44:11.562Z,38.60
2018-09-30T07:46:47.405Z,37.27
2018-09-30T07:49:23.405Z,58.87
2018-09-30T07:51:59.245Z,82.90
2018-09-30T07:54:35.087Z,62.67
2018-09-30T07:57:10.893Z,57.83
2018-09-30T07:59:47.358Z,28.53
2018-09-30T08:02:23.276Z,17.63
2018-09-30T08:04:59.105Z,17.90
2018-09-30T08:07:34.980Z,19.80
2018-09-30T08:10:10.836Z,30.30
2018-09-30T08:12:46.643Z,42.20
2018-09-30T08:15:22.605Z,29.53
2018-09-30T08:17:58.417Z,27.00
2018-09-30T08:20:35.092Z,24.40
2018-09-30T08:23:10.943Z,22.97
2018-09-30T08:25:47.385Z,23.10
2018-09-30T08:28:23.358Z,19.87
2018-09-30T08:30:59.397Z,24.13
2018-09-30T08:33:35.062Z,20.90
2018-09-30T08:36:11.474Z,18.93
2018-09-30T08:38:47.289Z,20.90
2018-09-30T08:41:23.198Z,23.97
2018-09-30T08:43:59.140Z,32.67
2018-09-30T08:46:35.530Z,18.47
2018-09-30T08:49:11.458Z,25.30
2018-09-30T08:51:47.348Z,30.23
2018-09-30T08:54:23.121Z,27.20
2018-09-30T08:56:58.949Z,28.30
2018-09-30T08:59:34.861Z,19.47
2018-09-30T09:02:10.772Z,16.87
2018-09-30T09:04:46.630Z,19.67
2018-09-30T09:07:22.528Z,25.37
2018-09-30T09:09:58.389Z,19.23
2018-09-30T09:12:34.554Z,13.73
2018-09-30T09:15:10.284Z,26.40
2018-09-30T09:17:46.404Z,74.87
2018-09-30T09:20:22.468Z,18.97
2018-09-30T09:22:58.323Z,10.63
2018-09-30T09:25:34.244Z,18.87
2018-09-30T09:28:10.533Z,16.97
2018-09-30T09:30:46.516Z,17.07
2018-09-30T09:33:22.456Z,17.60
2018-09-30T09:35:58.409Z,21.27
2018-09-30T09:38:34.354Z,18.90
2018-09-30T09:41:10.516Z,20.97
2018-09-30T09:43:46.368Z,16.80
2018-09-30T09:46:22.209Z,18.50
2018-09-30T09:48:58.187Z,13.37
2018-09-30T09:51:34.423Z,12.27
2018-09-30T09:54:10.416Z,17.10
2018-09-30T09:56:46.159Z,10.57
2018-09-30T09:59:22.129Z,12.17
2018-09-30T10:01:58.247Z,11.30
2018-09-30T10:04:35.124Z,17.27
2018-09-30T10:07:11.023Z,28.57
2018-09-30T10:09:46.951Z,32.30
2018-09-30T10:12:23.140Z,142.30
2018-09-30T10:14:58.961Z,62.90
2018-09-30T10:17:34.805Z,41.37
2018-09-30T10:20:11.099Z,34.53
2018-09-30T10:22:47.038Z,27.20
2018-09-30T10:25:22.913Z,22.97
2018-09-30T10:27:58.704Z,22.43
2018-09-30T10:30:34.623Z,29.73
2018-09-30T10:33:10.583Z,15.43
2018-09-30T10:35:46.494Z,19.17
2018-09-30T10:38:22.828Z,24.07
2018-09-30T10:40:58.852Z,22.33
2018-09-30T10:43:34.685Z,14.00
2018-09-30T10:46:10.654Z,21.70
2018-09-30T10:48:46.604Z,15.20
2018-09-30T10:51:22.587Z,14.67
2018-09-30T10:53:58.621Z,17.73
2018-09-30T10:56:34.483Z,22.27
2018-09-30T10:59:10.287Z,15.57
2018-09-30T11:01:46.361Z,20.27
2018-09-30T11:04:22.124Z,15.23
2018-09-30T11:06:58.193Z,19.47
2018-09-30T11:09:34.214Z,23.40
2018-09-30T11:12:10.137Z,16.83
2018-09-30T11:14:46.038Z,16.43
2018-09-30T11:17:21.981Z,16.17
2018-09-30T11:19:57.960Z,17.00
2018-09-30T11:22:33.949Z,10.37
2018-09-30T11:25:09.921Z,13.43
2018-09-30T11:27:45.836Z,13.93
2018-09-30T11:30:22.000Z,21.07
2018-09-30T11:32:57.894Z,20.43
2018-09-30T11:35:33.960Z,13.73
2018-09-30T11:38:10.059Z,10.87
2018-09-30T11:40:46.078Z,10.40
2018-09-30T11:43:21.933Z,19.10
2018-09-30T11:45:57.717Z,13.23
2018-09-30T11:48:33.628Z,11.77
2018-09-30T11:51:09.512Z,11.37
2018-09-30T11:53:48.256Z,11.27
2018-09-30T11:56:24.101Z,14.73
2018-09-30T11:59:00.268Z,20.50
2018-09-30T12:01:36.097Z,111.07
2018-09-30T12:04:12.099Z,32.80
2018-09-30T12:06:47.939Z,29.70
2018-09-30T12:09:23.892Z,19.13
2018-09-30T12:11:59.802Z,11.37
2018-09-30T12:14:31.561Z,11.60
2018-09-30T12:17:02.413Z,249.10
2018-09-30T12:19:33.297Z,127.20
2018-09-30T12:22:04.155Z,75.80
2018-09-30T12:24:35.240Z,57.23
2018-09-30T12:27:06.536Z,104.00
2018-09-30T12:29:37.627Z,47.83
2018-09-30T12:32:08.544Z,43.13
2018-09-30T12:34:39.451Z,25.57
2018-09-30T12:37:10.489Z,23.03
2018-09-30T12:39:41.450Z,7.23
2018-09-30T12:42:12.297Z,11.57
2018-09-30T12:44:43.197Z,30.93
2018-09-30T12:47:14.048Z,8.83
2018-09-30T12:49:44.929Z,73.13
2018-09-30T12:52:15.803Z,13.80
2018-09-30T12:54:46.862Z,10.87
2018-09-30T12:57:17.706Z,9.17
2018-09-30T12:59:48.567Z,9.07
2018-09-30T13:02:19.391Z,8.33
2018-09-30T13:04:50.267Z,9.87
2018-09-30T13:07:23.836Z,10.47
2018-09-30T13:09:55.019Z,10.87
2018-09-30T13:12:25.852Z,13.47
2018-09-30T13:14:57.168Z,18.90
2018-09-30T13:17:28.374Z,31.90
2018-09-30T13:19:59.297Z,44.07
2018-09-30T13:22:30.131Z,51.60
2018-09-30T13:25:01.089Z,53.17
2018-09-30T13:27:31.933Z,59.43
2018-09-30T13:30:02.833Z,48.37
2018-09-30T13:32:33.665Z,53.10
2018-09-30T13:35:04.564Z,21.83
2018-09-30T13:37:35.399Z,33.63
2018-09-30T13:40:06.488Z,26.27
2018-09-30T13:42:37.962Z,16.77
2018-09-30T13:45:09.331Z,20.90
2018-09-30T13:47:40.180Z,47.47
2018-09-30T13:50:11.119Z,25.50
2018-09-30T13:52:42.040Z,53.17
2018-09-30T13:55:13.104Z,22.47
2018-09-30T13:57:44.551Z,17.83
2018-09-30T14:00:15.573Z,16.17
2018-09-30T14:02:46.418Z,21.13
2018-09-30T14:05:17.381Z,27.13
2018-09-30T14:07:48.224Z,44.07
2018-09-30T14:10:19.646Z,25.83
2018-09-30T14:12:50.483Z,25.50
2018-09-30T14:15:21.366Z,49.47
2018-09-30T14:17:52.290Z,44.60
2018-09-30T14:20:23.193Z,39.50
2018-09-30T14:22:54.044Z,32.63
2018-09-30T14:25:24.981Z,27.63
2018-09-30T14:27:55.861Z,32.00
2018-09-30T14:30:26.770Z,33.77
2018-09-30T14:32:57.681Z,39.23
2018-09-30T14:35:28.577Z,30.80
2018-09-30T14:37:59.414Z,29.03
2018-09-30T14:40:30.385Z,24.53
2018-09-30T14:43:01.223Z,25.17
2018-09-30T14:45:32.513Z,37.50
2018-09-30T14:48:03.364Z,33.20
2018-09-30T14:50:34.386Z,20.30
2018-09-30T14:53:05.260Z,27.87
2018-09-30T14:55:36.702Z,41.27
2018-09-30T14:58:07.661Z,28.27
2018-09-30T15:00:38.660Z,22.47
2018-09-30T15:03:09.501Z,28.57
2018-09-30T15:05:40.425Z,26.20
2018-09-30T15:08:11.331Z,22.63
2018-09-30T15:10:42.323Z,24.80
2018-09-30T15:13:13.217Z,27.03
2018-09-30T15:15:44.101Z,23.73
2018-09-30T15:18:14.964Z,22.97
2018-09-30T15:20:45.869Z,32.43
2018-09-30T15:23:16.716Z,62.30
2018-09-30T15:25:47.663Z,63.27
2018-09-30T15:28:18.500Z,60.97
2018-09-30T15:30:49.546Z,91.17
2018-09-30T15:33:20.443Z,77.33
2018-09-30T15:35:52.328Z,88.53
2018-09-30T15:38:23.154Z,58.90
2018-09-30T15:40:54.093Z,59.67
2018-09-30T15:43:24.957Z,42.40
2018-09-30T15:45:55.851Z,45.07
2018-09-30T15:48:27.282Z,86.70
2018-09-30T15:50:58.163Z,67.60
2018-09-30T15:53:29.054Z,76.33
2018-09-30T15:56:00.168Z,139.80
2018-09-30T15:58:31.040Z,149.30
2018-09-30T16:01:01.968Z,173.33
2018-09-30T16:03:32.862Z,175.90
2018-09-30T16:06:03.821Z,177.20
2018-09-30T16:08:34.689Z,119.93
2018-09-30T16:11:05.677Z,81.03
2018-09-30T16:13:36.536Z,103.07
2018-09-30T16:16:08.045Z,103.53
2018-09-30T16:18:38.903Z,63.93
2018-09-30T16:21:11.216Z,36.87
2018-09-30T16:23:43.862Z,35.80
2018-09-30T16:26:15.045Z,29.33
2018-09-30T16:28:45.878Z,25.27
2018-09-30T16:31:17.178Z,18.43
2018-09-30T16:33:49.183Z,22.87
2018-09-30T16:36:20.250Z,20.23
2018-09-30T16:38:51.204Z,27.57
2018-09-30T16:41:22.237Z,34.60
2018-09-30T16:43:53.382Z,79.03
2018-09-30T16:46:24.268Z,64.73
2018-09-30T16:48:55.157Z,62.80
2018-09-30T16:51:26.119Z,63.37
2018-09-30T16:53:57.097Z,48.73
2018-09-30T16:56:28.185Z,30.73
2018-09-30T16:58:59.059Z,34.90
2018-09-30T17:01:29.979Z,44.80
2018-09-30T17:04:01.031Z,63.73
2018-09-30T17:06:32.025Z,50.93
2018-09-30T17:09:03.328Z,47.17
2018-09-30T17:11:34.345Z,50.30
2018-09-30T17:14:05.194Z,51.83
2018-09-30T17:16:36.692Z,36.70
2018-09-30T17:19:07.783Z,29.93
2018-09-30T17:21:39.308Z,34.17
2018-09-30T17:24:10.588Z,35.33
2018-09-30T17:26:41.615Z,49.27
2018-09-30T17:54:05.692Z,63.77
2018-09-30T17:56:36.802Z,64.47
2018-09-30T17:59:07.954Z,53.53
2018-09-30T18:01:39.418Z,42.17
2018-09-30T18:04:10.704Z,26.83
2018-09-30T18:06:41.900Z,61.83
2018-09-30T18:09:13.226Z,90.50
2018-09-30T18:11:45.203Z,61.37
2018-09-30T18:14:16.356Z,52.50
2018-09-30T18:16:47.672Z,43.57
2018-09-30T18:19:18.658Z,65.93
2018-09-30T18:21:49.756Z,71.20
2018-09-30T18:24:21.178Z,26.77
2018-09-30T18:26:54.430Z,37.57
2018-09-30T18:29:25.769Z,38.57
2018-09-30T18:31:57.106Z,24.03
2018-09-30T18:34:28.369Z,13.97
2018-09-30T18:36:59.593Z,13.23
2018-09-30T18:39:30.888Z,15.33
2018-09-30T18:42:02.221Z,12.53
2018-09-30T18:44:33.541Z,19.27
2018-09-30T18:47:04.655Z,31.93
2018-09-30T18:49:35.764Z,17.97
2018-09-30T18:52:07.691Z,15.37
2018-09-30T18:54:39.741Z,13.67
2018-09-30T18:57:23.292Z,17.57
2018-09-30T18:59:54.339Z,29.07
2018-09-30T19:02:25.301Z,11.10
2018-09-30T19:04:56.376Z,10.93
2018-09-30T19:07:27.371Z,13.97
2018-09-30T19:09:58.298Z,14.87
2018-09-30T19:12:29.228Z,12.67
2018-09-30T19:15:00.357Z,10.03
2018-09-30T19:17:31.416Z,9.37
2018-09-30T19:20:02.575Z,11.67
2018-09-30T19:22:33.563Z,23.40
2018-09-30T19:25:05.017Z,26.57
2018-09-30T19:27:36.499Z,28.47
2018-09-30T19:30:07.615Z,48.50
2018-09-30T19:32:39.912Z,41.50
2018-09-30T19:35:10.813Z,26.10
2018-09-30T19:37:41.725Z,32.07
2018-09-30T19:40:12.879Z,30.20
2018-09-30T19:42:43.763Z,31.50
2018-09-30T19:45:14.732Z,25.10
2018-09-30T19:47:45.646Z,29.03
2018-09-30T19:50:16.582Z,25.90
2018-09-30T19:52:47.499Z,18.87
2018-09-30T19:55:18.427Z,20.33
2018-09-30T19:59:13.942Z,23.67
2018-09-30T20:01:50.684Z,19.33
2018-09-30T20:04:26.686Z,20.97
2018-09-30T20:07:02.610Z,18.40
2018-09-30T20:09:38.493Z,17.77
2018-09-30T20:12:14.664Z,15.10
2018-09-30T20:14:50.516Z,18.20
2018-09-30T20:17:26.597Z,16.60
2018-09-30T20:20:02.431Z,17.00
2018-09-30T20:22:38.414Z,19.23
2018-09-30T20:25:14.285Z,10.00
2018-09-30T20:27:50.145Z,14.40
2018-09-30T20:30:25.969Z,15.00
2018-09-30T20:33:01.911Z,21.33
2018-09-30T20:35:37.861Z,16.40
2018-09-30T20:38:13.695Z,15.07
2018-09-30T20:40:49.580Z,20.23
2018-09-30T20:43:25.456Z,37.70
2018-09-30T20:46:01.376Z,26.00
2018-09-30T20:48:37.314Z,26.10
2018-09-30T20:51:13.285Z,10.07
2018-09-30T20:53:50.612Z,9.63
2018-09-30T20:56:26.512Z,6.67
2018-09-30T20:59:02.481Z,5.30
2018-09-30T21:01:38.326Z,5.13
2018-09-30T21:04:14.308Z,5.17
2018-09-30T21:06:50.328Z,4.37
2018-09-30T21:09:26.192Z,4.97
2018-09-30T21:12:02.266Z,5.80
2018-09-30T21:14:38.394Z,8.73
2018-09-30T21:17:15.423Z,7.03
2018-09-30T21:19:51.537Z,6.43
2018-09-30T21:22:27.856Z,5.27
2018-09-30T21:25:04.237Z,4.90
2018-09-30T21:27:40.244Z,5.23
2018-09-30T21:30:16.043Z,4.77
2018-09-30T21:32:51.850Z,4.80
2018-09-30T21:35:28.064Z,5.13
2018-09-30T21:38:04.409Z,5.93
2018-09-30T21:40:40.369Z,6.97
2018-09-30T21:43:17.036Z,6.13
2018-09-30T21:45:52.901Z,4.43
2018-09-30T21:48:28.734Z,5.10
2018-09-30T21:51:05.049Z,5.53
2018-09-30T21:53:40.865Z,6.00
2018-09-30T21:56:16.713Z,8.00
2018-09-30T21:58:52.619Z,9.70
2018-09-30T22:01:28.820Z,6.37
2018-09-30T22:04:04.768Z,5.70
2018-09-30T22:06:40.684Z,5.77
2018-09-30T22:09:16.676Z,7.77
2018-09-30T22:11:52.503Z,8.07
2018-09-30T22:14:28.339Z,7.90
2018-09-30T22:17:04.242Z,9.67
2018-09-30T22:19:40.125Z,9.10
2018-09-30T22:22:16.100Z,8.63
2018-09-30T22:24:52.076Z,7.63
2018-09-30T22:27:28.255Z,7.30
2018-09-30T22:30:04.161Z,9.03
2018-09-30T22:32:40.169Z,10.63
2018-09-30T22:35:18.343Z,14.83
2018-09-30T22:37:54.257Z,9.27
2018-09-30T22:40:30.213Z,9.03
2018-09-30T22:43:06.565Z,9.60
2018-09-30T22:45:43.386Z,11.33
2018-09-30T22:48:19.256Z,11.97
2018-09-30T22:51:09.716Z,9.90
2018-09-30T22:53:45.685Z,7.83
2018-09-30T22:56:21.645Z,8.97
2018-09-30T22:58:57.473Z,8.53
2018-09-30T23:01:33.366Z,7.70
2018-09-30T23:04:09.176Z,12.27
2018-09-30T23:06:45.024Z,8.20
2018-09-30T23:09:20.900Z,7.97
2018-09-30T23:11:56.971Z,7.63
2018-09-30T23:14:32.790Z,9.20
2018-09-30T23:17:09.195Z,8.17
2018-09-30T23:19:45.080Z,7.90
2018-09-30T23:22:20.854Z,7.70
2018-09-30T23:24:56.737Z,9.50
2018-09-30T23:27:32.685Z,7.23
2018-09-30T23:30:08.705Z,5.33
2018-09-30T23:32:44.629Z,6.47
2018-09-30T23:35:20.598Z,4.57
2018-09-30T23:37:56.421Z,5.50
2018-09-30T23:40:32.357Z,6.77
2018-09-30T23:43:08.222Z,8.10
2018-09-30T23:45:44.052Z,6.73
2018-09-30T23:48:22.338Z,6.63
2018-09-30T23:50:58.296Z,8.40
2018-09-30T23:53:35.299Z,7.93
2018-09-30T23:56:11.151Z,5.23
2018-09-30T23:58:47.056Z,6.70
